createdAt,value
2023-06-17T00:04:28.714Z,14.76
2023-06-17T00:09:30.938Z,14.81
2023-06-17T00:14:33.839Z,14.68
2023-06-17T00:19:37.190Z,14.61
2023-06-17T00:24:39.456Z,14.61
2023-06-17T00:29:41.774Z,14.70
2023-06-17T00:34:43.994Z,14.76
2023-06-17T00:39:46.341Z,14.60
2023-06-17T00:44:48.572Z,14.57
2023-06-17T00:49:54.761Z,14.52
2023-06-17T00:54:57.083Z,14.64
2023-06-17T00:59:59.414Z,14.70
2023-06-17T01:05:02.272Z,14.75
2023-06-17T01:10:19.151Z,14.60
2023-06-17T01:15:22.890Z,14.67
2023-06-17T01:20:26.956Z,14.59
2023-06-17T01:25:32.760Z,14.65
2023-06-17T01:30:35.153Z,14.52
2023-06-17T01:35:42.025Z,14.49
2023-06-17T01:40:46.338Z,14.58
2023-06-17T01:45:48.824Z,14.49
2023-06-17T01:50:51.680Z,14.36
2023-06-17T01:55:54.283Z,14.47
2023-06-17T02:00:56.538Z,14.46
2023-06-17T02:05:59.377Z,14.49
2023-06-17T02:11:02.391Z,14.47
2023-06-17T02:16:04.802Z,14.53
2023-06-17T02:21:06.958Z,14.41
2023-06-17T02:26:09.219Z,14.33
2023-06-17T02:31:11.734Z,14.34
2023-06-17T02:36:15.717Z,14.30
2023-06-17T02:41:17.934Z,14.28
2023-06-17T02:46:20.379Z,14.27
2023-06-17T02:51:23.667Z,14.19
2023-06-17T02:56:27.758Z,14.23
2023-06-17T03:01:30.086Z,14.26
2023-06-17T03:06:35.271Z,14.33
2023-06-17T03:11:37.992Z,14.23
2023-06-17T03:16:41.714Z,14.22
2023-06-17T03:21:44.353Z,14.27
2023-06-17T03:26:46.750Z,14.28
2023-06-17T03:31:48.937Z,14.31
2023-06-17T03:36:51.395Z,14.43
2023-06-17T03:41:53.617Z,14.53
2023-06-17T03:46:58.389Z,14.60
2023-06-17T03:52:00.684Z,14.74
2023-06-17T03:57:03.466Z,14.86
2023-06-17T04:02:05.852Z,14.84
2023-06-17T04:07:08.160Z,14.86
2023-06-17T04:12:10.922Z,14.87
2023-06-17T04:17:13.076Z,15.00
2023-06-17T04:22:15.284Z,15.06
2023-06-17T04:27:17.422Z,15.19
2023-06-17T04:32:19.641Z,15.32
2023-06-17T04:37:21.798Z,15.51
2023-06-17T04:42:24.633Z,15.61
2023-06-17T04:47:27.010Z,15.67
2023-06-17T04:52:31.947Z,15.73
2023-06-17T04:57:34.738Z,15.76
2023-06-17T05:02:37.808Z,15.99
2023-06-17T05:07:40.170Z,16.04
2023-06-17T05:12:42.813Z,16.26
2023-06-17T05:17:45.315Z,16.26
2023-06-17T05:22:47.687Z,16.22
2023-06-17T05:27:51.647Z,16.34
2023-06-17T05:32:53.872Z,16.46
2023-06-17T05:37:56.161Z,16.49
2023-06-17T05:42:58.575Z,16.62
2023-06-17T05:48:01.005Z,16.74
2023-06-17T05:53:03.848Z,16.79
2023-06-17T05:58:06.131Z,16.86
2023-06-17T06:03:08.330Z,16.86
2023-06-17T06:08:10.656Z,16.79
2023-06-17T06:13:13.077Z,16.87
2023-06-17T06:18:15.817Z,17.04
2023-06-17T06:23:18.017Z,17.18
2023-06-17T06:28:20.200Z,17.48
2023-06-17T06:33:24.047Z,17.54
2023-06-17T06:38:26.292Z,17.83
2023-06-17T06:43:28.508Z,17.96
2023-06-17T06:48:30.785Z,18.21
2023-06-17T06:53:33.267Z,18.24
2023-06-17T06:58:35.715Z,18.20
2023-06-17T07:03:38.578Z,18.38
2023-06-17T07:08:40.827Z,18.84
2023-06-17T07:13:43.099Z,19.44
2023-06-17T07:18:45.301Z,19.67
2023-06-17T07:23:47.628Z,19.77
2023-06-17T07:28:49.878Z,19.96
2023-06-17T07:33:57.811Z,19.95
2023-06-17T07:39:02.933Z,20.08
2023-06-17T07:44:05.268Z,20.33
2023-06-17T07:49:07.481Z,20.30
2023-06-17T07:54:09.995Z,20.81
2023-06-17T07:59:12.198Z,21.27
2023-06-17T08:04:14.546Z,21.77
2023-06-17T08:09:16.749Z,22.95
2023-06-17T08:14:19.117Z,24.38
2023-06-17T08:19:21.381Z,25.38
2023-06-17T08:24:26.062Z,25.83
2023-06-17T08:29:28.469Z,25.99
2023-06-17T08:34:33.721Z,26.28
2023-06-17T08:39:40.814Z,26.55
2023-06-17T08:44:45.290Z,26.36
2023-06-17T08:49:48.161Z,25.84
2023-06-17T08:54:51.154Z,27.46
2023-06-17T08:59:53.319Z,27.33
2023-06-17T09:04:55.791Z,26.89
2023-06-17T09:10:09.035Z,26.66
2023-06-17T09:15:18.515Z,27.08
2023-06-17T09:20:21.406Z,26.88
2023-06-17T09:25:24.488Z,27.52
2023-06-17T09:30:26.830Z,27.78
2023-06-17T09:35:29.035Z,28.58
2023-06-17T09:40:33.857Z,28.80
2023-06-17T09:45:36.284Z,28.13
2023-06-17T09:50:39.009Z,28.52
2023-06-17T09:55:42.828Z,28.51
2023-06-17T10:00:46.761Z,27.40
2023-06-17T10:06:01.498Z,28.92
2023-06-17T10:11:04.101Z,29.09
2023-06-17T10:16:11.924Z,30.71
2023-06-17T10:21:14.923Z,28.96
2023-06-17T10:26:17.095Z,29.17
2023-06-17T10:31:29.823Z,29.98
2023-06-17T10:36:35.026Z,29.82
2023-06-17T10:41:43.121Z,29.36
2023-06-17T10:46:47.680Z,29.42
2023-06-17T10:51:59.222Z,31.45
2023-06-17T10:57:02.905Z,31.13
2023-06-17T11:02:09.008Z,30.27
2023-06-17T11:07:11.292Z,32.05
2023-06-17T11:12:17.553Z,31.78
2023-06-17T11:17:19.926Z,30.98
2023-06-17T11:22:23.868Z,31.20
2023-06-17T11:27:26.152Z,31.72
2023-06-17T11:32:29.193Z,33.08
2023-06-17T11:37:33.552Z,33.83
2023-06-17T11:42:35.976Z,34.62
2023-06-17T11:47:38.420Z,33.59
2023-06-17T11:52:40.763Z,31.68
2023-06-17T11:57:43.825Z,30.16
2023-06-17T12:02:46.345Z,32.19
2023-06-17T12:07:49.029Z,31.40
2023-06-17T12:12:51.856Z,31.27
2023-06-17T12:17:56.247Z,32.96
2023-06-17T12:22:59.087Z,31.88
2023-06-17T12:28:03.006Z,30.71
2023-06-17T12:33:05.318Z,30.15
2023-06-17T12:38:09.242Z,30.43
2023-06-17T12:43:11.474Z,30.97
2023-06-17T12:48:13.806Z,31.21
2023-06-17T12:53:16.137Z,30.80
2023-06-17T12:58:18.362Z,29.76
2023-06-17T13:03:21.840Z,28.76
2023-06-17T13:08:24.109Z,29.79
2023-06-17T13:13:28.357Z,31.82
2023-06-17T13:18:30.585Z,30.44
2023-06-17T13:23:32.793Z,32.34
2023-06-17T13:28:36.053Z,30.44
2023-06-17T13:33:39.050Z,32.41
2023-06-17T13:38:41.472Z,31.04
2023-06-17T13:43:43.702Z,31.42
2023-06-17T13:48:46.071Z,31.38
2023-06-17T13:53:48.344Z,31.24
2023-06-17T13:58:50.566Z,31.16
2023-06-17T14:03:53.377Z,30.49
2023-06-17T14:08:55.739Z,30.47
2023-06-17T14:13:57.988Z,28.74
2023-06-17T14:19:00.878Z,28.87
2023-06-17T14:24:05.938Z,29.97
2023-06-17T14:29:10.073Z,28.07
2023-06-17T14:34:12.322Z,28.07
2023-06-17T14:39:14.529Z,29.12
2023-06-17T14:44:16.903Z,31.29
2023-06-17T14:49:19.397Z,30.28
2023-06-17T14:54:21.666Z,27.72
2023-06-17T14:59:24.205Z,28.09
2023-06-17T15:04:28.000Z,29.29
2023-06-17T15:09:31.951Z,27.64
2023-06-17T15:14:36.629Z,28.79
2023-06-17T15:19:38.882Z,27.47
2023-06-17T15:24:43.987Z,26.62
2023-06-17T15:29:46.189Z,25.84
2023-06-17T15:34:49.069Z,25.64
2023-06-17T15:39:51.592Z,26.90
2023-06-17T15:44:53.808Z,26.31
2023-06-17T15:49:56.000Z,27.22
2023-06-17T15:54:58.411Z,28.06
2023-06-17T16:00:02.637Z,27.73
2023-06-17T16:05:05.351Z,27.87
2023-06-17T16:10:08.083Z,27.81
2023-06-17T16:15:19.567Z,27.37
2023-06-17T16:20:22.177Z,27.31
2023-06-17T16:25:24.602Z,27.33
2023-06-17T16:30:34.277Z,27.31
2023-06-17T16:35:36.545Z,26.67
2023-06-17T16:40:38.842Z,27.31
2023-06-17T16:45:41.518Z,26.40
2023-06-17T16:50:43.908Z,26.07
2023-06-17T16:55:46.446Z,25.98
2023-06-17T17:00:48.628Z,25.51
2023-06-17T17:05:51.171Z,25.19
2023-06-17T17:10:53.468Z,24.86
2023-06-17T17:15:56.277Z,24.45
2023-06-17T17:20:58.641Z,24.06
2023-06-17T17:26:00.924Z,23.69
2023-06-17T17:31:04.057Z,23.71
2023-06-17T17:36:07.272Z,23.48
2023-06-17T17:41:10.210Z,23.23
2023-06-17T17:46:12.621Z,22.79
2023-06-17T17:51:15.259Z,22.55
2023-06-17T17:56:17.571Z,22.48
2023-06-17T18:01:19.851Z,22.54
2023-06-17T18:06:22.515Z,22.42
2023-06-17T18:11:24.791Z,22.14
2023-06-17T18:16:27.073Z,21.99
2023-06-17T18:21:29.914Z,21.88
2023-06-17T18:26:32.230Z,21.68
2023-06-17T18:31:34.536Z,21.39
2023-06-17T18:36:36.821Z,21.25
2023-06-17T18:41:43.134Z,20.99
2023-06-17T18:46:45.789Z,20.81
2023-06-17T18:51:48.470Z,20.67
2023-06-17T18:56:50.889Z,20.48
2023-06-17T19:01:53.182Z,20.33
2023-06-17T19:06:55.788Z,20.14
2023-06-17T19:12:00.975Z,20.11
2023-06-17T19:17:03.772Z,19.96
2023-06-17T19:22:06.412Z,19.94
2023-06-17T19:27:08.700Z,19.77
2023-06-17T19:32:10.934Z,19.74
2023-06-17T19:37:13.235Z,19.54
2023-06-17T19:42:15.636Z,19.35
2023-06-17T19:47:17.995Z,19.37
2023-06-17T19:52:21.347Z,19.08
2023-06-17T19:57:23.642Z,19.01
2023-06-17T20:02:26.227Z,19.01
2023-06-17T20:07:28.512Z,18.95
2023-06-17T20:12:31.150Z,18.98
2023-06-17T20:17:33.481Z,18.86
2023-06-17T20:22:35.789Z,18.71
2023-06-17T20:27:38.262Z,18.80
2023-06-17T20:32:41.702Z,18.72
2023-06-17T20:37:44.348Z,18.63
2023-06-17T20:42:46.644Z,18.59
2023-06-17T20:47:49.002Z,18.51
2023-06-17T20:52:51.273Z,18.41
2023-06-17T20:57:53.463Z,18.28
2023-06-17T21:02:56.083Z,18.13
2023-06-17T21:07:58.653Z,18.11
2023-06-17T21:13:01.585Z,18.15
2023-06-17T21:18:03.928Z,18.25
2023-06-17T21:23:06.149Z,18.31
2023-06-17T21:28:08.358Z,17.92
2023-06-17T21:33:10.766Z,17.77
2023-06-17T21:38:13.100Z,17.65
2023-06-17T21:43:15.826Z,17.59
2023-06-17T21:48:18.188Z,17.44
2023-06-17T21:53:20.630Z,17.43
2023-06-17T21:58:22.964Z,17.38
2023-06-17T22:03:25.605Z,17.37
2023-06-17T22:08:41.226Z,17.45
2023-06-17T22:13:44.983Z,17.49
2023-06-17T22:18:47.417Z,17.69
2023-06-17T22:23:49.959Z,17.44
2023-06-17T22:28:52.653Z,17.28
2023-06-17T22:33:54.869Z,17.16
2023-06-17T22:38:57.061Z,16.79
2023-06-17T22:43:59.404Z,16.78
2023-06-17T22:49:01.939Z,16.72
2023-06-17T22:54:04.353Z,16.82
2023-06-17T22:59:06.625Z,16.66
2023-06-17T23:04:08.836Z,16.63
2023-06-17T23:09:11.587Z,16.81
2023-06-17T23:14:13.799Z,16.94
2023-06-17T23:19:16.254Z,16.74
2023-06-17T23:24:18.418Z,16.56
2023-06-17T23:29:20.942Z,16.41
2023-06-17T23:34:23.257Z,16.44
2023-06-17T23:39:25.508Z,16.21
2023-06-17T23:44:27.779Z,16.06
2023-06-17T23:49:35.595Z,16.11
2023-06-17T23:54:38.263Z,16.11
2023-06-17T23:59:41.271Z,16.07
